Terminal Aerodrome Forecast
Issued by NWS

Home | Current Version | Previous Version | Text Only | Print | Product List | Glossary Off
Versions: 1 2 3 4 5 6 7 8 9 10 11 12 13 14 15 16 17 18 19 20 21 22 23 24 25 26 27 28 29 30 31 32 33 34 35 36

000
FTUS43 KPAH 301140
TAFOWB
TAF
KOWB 301140Z 3012/3112 17008KT P6SM FEW040 SCT250
     FM301500 19014G22KT P6SM SCT030 BKN050
      TEMPO 3021/3101 20018G27KT TSRA BKN025CB OVC040
     FM310100 20017G25KT P6SM BKN012 OVC020
     FM310400 24012G19KT P6SM BKN008 OVC012
     FM310900 27009KT P6SM OVC005=

USA.gov is the U.S. government's official web portal to all federal, state and local government web resources and services.